• Join FlightAware (Why Join?)
  • Login
  • US Flag 
09:12AM EST


 

Airport Tracker/Info


-or-


 

Live Flight TrackerFlight Track Log ✈ QLK376D ✈ 27-Aug-2013 ✈ YBBN / BNE - YHBA / HVB

Flight Track Log - Related Links

Times and Time Zones

All times are in EDT time to prevent confusion due to time zone crossing. See the QLK376D flight status page for this flight to view local times or setup timezone preferences in your user account.

Time Position Orientation Groundspeed Altitude Reporting Facility
EDT Latitude Longitude Course Direction KTS MPH feet Rate Location/Type
09:01PM -27.3533 153.1241 353° North 142 163 400  Level Aus ATC (RADAR)
09:02PM -27.3300 153.1208 353° North 150 173 2,100 2,580 Climbing Aus ATC (RADAR)
09:02PM -27.2916 153.1247 North 185 213 3,900 2,580 Climbing Aus ATC (RADAR)
09:03PM -27.2545 153.1235 358° North 198 228 5,800 2,520 Climbing Aus ATC (RADAR)
09:04PM -27.1687 153.1188 357° North 240 276 9,000 2,400 Climbing Aus ATC (RADAR)
09:05PM -27.0928 153.1151 358° North 253 291 11,600 2,400 Climbing Aus ATC (RADAR)
09:06PM -27.0458 153.1118 356° North 253 291 13,200 2,040 Climbing Aus ATC (RADAR)
09:07PM -27.0033 153.1099 358° North 260 299 14,200 660 Climbing Aus ATC (RADAR)
09:07PM -26.9340 153.1072 358° North 307 353 14,200  Level Aus ATC (RADAR)
09:09PM -26.7809 153.0993 357° North 353 406 14,200  Level Aus ATC (RADAR)
09:10PM -26.7003 153.0948 357° North 348 400 14,200  Level Aus ATC (RADAR)
09:10PM -26.6441 153.0921 358° North 347 399 14,200  Level Aus ATC (RADAR)
09:11PM -26.5640 153.0883 358° North 346 398 14,200  Level Aus ATC (RADAR)
09:12PM -26.5080 153.0839 356° North 346 398 14,200  Level Aus ATC (RADAR)
09:13PM -26.4286 153.0739 354° North 345 397 14,200  Level Aus ATC (RADAR)
09:14PM -26.2698 153.0590 355° North 343 395 14,200  Level Aus ATC (RADAR)
09:15PM -26.1666 153.0496 355° North 342 394 14,200  Level Aus ATC (RADAR)
09:16PM -26.1031 153.0441 356° North 343 395 14,200  Level Aus ATC (RADAR)
09:17PM -26.0397 153.0367 354° North 343 395 14,200 -600 Level Aus ATC (RADAR)
09:18PM -25.9533 153.0307 356° North 339 390 13,300 -1,380 Descending Aus ATC (RADAR)
09:18PM -25.8990 153.0259 355° North 333 383 12,200 -1,740 Descending Aus ATC (RADAR)
09:19PM -25.7976 153.0183 356° North 309 356 10,300 -1,680 Descending Aus ATC (RADAR)
09:20PM -25.7251 153.0107 355° North 284 327 8,700 -1,680 Descending Aus ATC (RADAR)
09:21PM -25.6673 153.0057 356° North 279 321 7,500 -1,560 Descending Aus ATC (RADAR)
09:22PM -25.6225 153.0012 355° North 279 321 6,700 -1,440 Descending Aus ATC (RADAR)
09:22PM -25.5605 152.9947 355° North 267 307 5,500 -1,380 Descending Aus ATC (RADAR)
09:23PM -25.5014 152.9897 356° North 256 295 4,400 -1,380 Descending Aus ATC (RADAR)
09:24PM -25.4430 152.9799 351° North 255 293 3,200 -1,440 Descending Aus ATC (RADAR)